createdAt,value
2023-05-14T00:00:39.816Z,10.4
2023-05-14T00:10:40.205Z,10.3
2023-05-14T00:30:41.737Z,10.2
2023-05-14T00:40:42.252Z,10.1
2023-05-14T00:50:43.037Z,9.9
2023-05-14T01:00:43.304Z,9.7
2023-05-14T01:10:43.873Z,9.7
2023-05-14T01:20:44.592Z,9.6
2023-05-14T01:30:44.948Z,9.4
2023-05-14T01:40:45.055Z,9.2
2023-05-14T01:50:45.220Z,9.2
2023-05-14T02:00:45.503Z,9.1
2023-05-14T02:10:45.745Z,9.2
2023-05-14T02:30:47.492Z,9.1
2023-05-14T02:40:47.970Z,9
2023-05-14T02:50:48.156Z,9
2023-05-14T03:00:48.579Z,8.9
2023-05-14T03:10:49.229Z,8.8
2023-05-14T03:20:50.269Z,8.7
2023-05-14T03:30:51.195Z,8.7
2023-05-14T03:40:52.143Z,8.5
2023-05-14T03:50:52.813Z,8.5
2023-05-14T04:00:53.571Z,8.4
2023-05-14T04:10:54.672Z,8.5
2023-05-14T04:20:54.853Z,8.4
2023-05-14T04:30:55.795Z,8.5
2023-05-14T04:40:56.436Z,8.7
2023-05-14T04:50:57.510Z,8.9
2023-05-14T05:00:57.719Z,9
2023-05-14T05:10:58.660Z,9.2
2023-05-14T05:20:59.663Z,9.4
2023-05-14T05:30:59.982Z,9.7
2023-05-14T05:41:00.239Z,10.1
2023-05-14T05:51:00.887Z,10.6
2023-05-14T06:01:01.448Z,11
2023-05-14T06:21:02.667Z,11.7
2023-05-14T06:41:04.232Z,12.4
2023-05-14T07:01:05.563Z,13
2023-05-14T07:11:06.538Z,13.3
2023-05-14T07:21:07.416Z,13.9
2023-05-14T07:31:07.540Z,14.5
2023-05-14T07:41:08.484Z,15
2023-05-14T07:51:09.112Z,15.4
2023-05-14T08:01:09.848Z,15.8
2023-05-14T08:11:10.512Z,16.4
2023-05-14T08:21:11.529Z,16.8
2023-05-14T08:31:11.836Z,17.3
2023-05-14T08:41:12.141Z,17.9
2023-05-14T08:51:13.145Z,18.8
2023-05-14T09:11:15.001Z,19.7
2023-05-14T09:21:15.865Z,20.2
2023-05-14T09:31:16.242Z,20.5
2023-05-14T09:41:17.214Z,20.9
2023-05-14T09:51:17.751Z,21.4
2023-05-14T10:01:17.959Z,21.7
2023-05-14T10:21:18.655Z,21.6
2023-05-14T10:31:19.271Z,21.8
2023-05-14T10:41:20.151Z,22
2023-05-14T10:51:21.215Z,22
2023-05-14T11:01:22.311Z,22.6
2023-05-14T11:11:22.542Z,22.5
2023-05-14T11:21:23.094Z,22.2
2023-05-14T11:41:24.771Z,22.1
2023-05-14T11:51:25.137Z,22.4
2023-05-14T12:01:25.302Z,22.6
2023-05-14T12:11:25.770Z,21.8
2023-05-14T12:21:26.090Z,21.1
2023-05-14T12:41:27.326Z,20.8
2023-05-14T12:51:28.280Z,22.1
2023-05-14T13:01:29.390Z,22.6
2023-05-14T13:11:29.988Z,22.2
2023-05-14T13:21:30.846Z,22.1
2023-05-14T13:41:31.802Z,22.3
2023-05-14T13:51:32.458Z,22.5
2023-05-14T14:01:32.732Z,22.6
2023-05-14T14:11:33.182Z,22.8
2023-05-14T14:41:34.709Z,22.8
2023-05-14T14:51:35.059Z,22.8
2023-05-14T15:01:35.304Z,22.5
2023-05-14T15:11:37.486Z,21.9
2023-05-14T15:21:36.489Z,21.8
2023-05-14T15:31:36.665Z,21.6
2023-05-14T15:41:37.067Z,21.5
2023-05-14T15:51:38.062Z,21.3
2023-05-14T16:01:38.576Z,21.3
2023-05-14T16:11:39.304Z,21.3
2023-05-14T16:21:39.504Z,21.1
2023-05-14T16:31:40.264Z,21.1
2023-05-14T16:41:41.059Z,21.2
2023-05-14T17:01:42.768Z,21.1
2023-05-14T17:21:44.553Z,20.7
2023-05-14T17:31:45.449Z,20.7
2023-05-14T17:41:45.813Z,20.6
2023-05-14T17:51:46.459Z,20.5
2023-05-14T18:01:46.998Z,20.3
2023-05-14T18:11:47.638Z,19.9
2023-05-14T18:21:48.098Z,19.6
2023-05-14T18:31:49.172Z,19.4
2023-05-14T18:41:49.921Z,19
2023-05-14T18:51:50.032Z,18.4
2023-05-14T19:01:50.957Z,18
2023-05-14T19:11:51.119Z,17.6
2023-05-14T19:21:51.199Z,17.4
2023-05-14T19:31:52.189Z,17.1
2023-05-14T19:41:52.697Z,16.8
2023-05-14T19:51:53.544Z,16.7
2023-05-14T20:21:55.548Z,16
2023-05-14T20:41:56.597Z,15.5
2023-05-14T20:51:57.270Z,15.2
2023-05-14T21:01:57.926Z,14.7
2023-05-14T21:11:58.064Z,14.5
2023-05-14T21:21:58.933Z,14.4
2023-05-14T21:41:59.320Z,14.2
2023-05-14T21:51:59.610Z,13.9
2023-05-14T22:12:00.994Z,13.4
2023-05-14T22:22:01.761Z,13.1
2023-05-14T22:32:02.198Z,12.9
2023-05-14T22:42:02.752Z,12.8
2023-05-14T22:52:02.836Z,12.6
2023-05-14T23:02:03.783Z,12.6
2023-05-14T23:12:04.218Z,12.5
2023-05-14T23:22:05.166Z,12.4
2023-05-14T23:32:05.750Z,12.3
2023-05-14T23:42:06.309Z,12.2
2023-05-14T23:52:07.330Z,12
